Rumney, New Hampshire
Current Conditions -  °F | °C
As of 1:15 PM on Thursday 23 Oct 2014 (Local Time) from K1P1 Reporting Station
Moderate Rain Moderate Rain  
Wind Chill: 49°   Ceiling: 3300
Heat Index: 49°   Visibility: 10mi
Dew Point: 49°   Wind: 0mph
Humidity: 100%   Direction: NA
Pressure: 29.8"   Gusts: NA
Location:  43.81°N, 71.81°W
Report Text: K1P1 231715Z AUTO 00000KT 10SM RA OVC033 10/10 A2980 RMK AO2 P0001 T00970097
Loading
Personal Weather Stations






























Interactive Weather Map
Tropical Storm Tracking
New forecast layout! Learn more

10-Day Weather Forecast

Advertisements
Track Severe Weather on mobile